Time;durP1;ratioP1;P1;durP2;ratioP2;P2;SDS_P1;SDS_P2;PMS_P1;PMS_P2;Temp;Humidity;BMP_temperature;BMP_pressure;BME280_temperature;BME280_humidity;BME280_pressure;Samples;Min_cycle;Max_cycle;Signal;HPM_P1;HPM_P2
2021/06/22 00:00:50;;;;;;;6.30;3.47;;;16.70;99.90;;;;;;5056051;28;20060;-72
2021/06/22 00:03:19;;;;;;;5.35;3.20;;;16.70;99.90;;;;;;5060691;28;20052;-73
2021/06/22 00:05:44;;;;;;;5.40;4.00;;;16.70;99.90;;;;;;5062616;28;20485;-73
2021/06/22 00:08:12;;;;;;;5.55;3.40;;;16.70;99.90;;;;;;5063365;28;20039;-72
2021/06/22 00:10:38;;;;;;;4.85;3.28;;;16.60;99.90;;;;;;5066428;28;20028;-72
2021/06/22 00:13:04;;;;;;;6.45;3.70;;;16.50;99.90;;;;;;5064054;28;20150;-73
2021/06/22 00:15:32;;;;;;;6.15;3.20;;;16.50;99.90;;;;;;5044117;28;20025;-72
2021/06/22 00:18:01;;;;;;;8.02;3.45;;;16.60;99.90;;;;;;5058621;28;20369;-72
2021/06/22 00:20:26;;;;;;;6.47;3.40;;;16.50;99.90;;;;;;5059649;28;20044;-72
2021/06/22 00:22:55;;;;;;;5.00;3.08;;;16.60;99.90;;;;;;5057485;28;20042;-72
2021/06/22 00:25:21;;;;;;;5.70;3.25;;;16.60;99.90;;;;;;5057976;28;20045;-72
2021/06/22 00:27:49;;;;;;;6.63;3.35;;;16.60;99.90;;;;;;5057142;28;20066;-73
2021/06/22 00:30:15;;;;;;;5.68;3.22;;;16.60;99.90;;;;;;5044933;28;20039;-72
2021/06/22 00:32:44;;;;;;;5.82;3.55;;;16.60;99.90;;;;;;5057778;28;20020;-72
2021/06/22 00:35:10;;;;;;;5.20;2.80;;;16.60;99.90;;;;;;5057199;28;20039;-72
2021/06/22 00:37:35;;;;;;;6.60;3.20;;;16.60;99.90;;;;;;5067641;28;20028;-72
2021/06/22 00:40:01;;;;;;;4.60;3.10;;;16.70;99.90;;;;;;5059889;28;20024;-72
2021/06/22 00:42:27;;;;;;;5.60;3.38;;;16.60;99.90;;;;;;5062750;28;20150;-72
2021/06/22 00:44:59;;;;;;;6.68;3.40;;;16.60;99.90;;;;;;5058632;28;20048;-72
2021/06/22 00:47:28;;;;;;;5.22;2.97;;;16.60;99.90;;;;;;5077260;28;20577;-72
2021/06/22 00:49:54;;;;;;;5.70;3.30;;;16.60;99.90;;;;;;5060602;28;20021;-72
2021/06/22 00:52:23;;;;;;;5.30;3.70;;;16.60;99.90;;;;;;5060777;28;20029;-72
2021/06/22 00:54:49;;;;;;;6.05;3.20;;;16.60;99.90;;;;;;5061271;28;20043;-72
2021/06/22 00:57:15;;;;;;;5.55;3.35;;;16.50;99.90;;;;;;5059515;28;20016;-72
2021/06/22 00:59:41;;;;;;;5.45;3.13;;;16.50;99.90;;;;;;5057717;28;20343;-73
2021/06/22 01:02:06;;;;;;;4.35;2.75;;;16.50;99.90;;;;;;5059460;28;20039;-72
2021/06/22 01:04:32;;;;;;;4.65;3.00;;;16.50;99.90;;;;;;5054834;28;20111;-72
2021/06/22 01:06:58;;;;;;;5.15;2.75;;;16.50;99.90;;;;;;5042754;28;20179;-72
2021/06/22 01:09:30;;;;;;;4.93;2.80;;;16.50;99.90;;;;;;5043706;28;20909;-72
2021/06/22 01:11:59;;;;;;;4.70;2.75;;;16.50;99.90;;;;;;5061267;28;20024;-73
2021/06/22 01:14:25;;;;;;;4.13;2.50;;;16.40;99.90;;;;;;5058728;28;20036;-72
2021/06/22 01:16:54;;;;;;;4.68;2.45;;;16.40;99.90;;;;;;5059008;28;20013;-72
2021/06/22 01:19:19;;;;;;;4.03;2.50;;;16.30;99.90;;;;;;5058834;28;20070;-72
2021/06/22 01:21:50;;;;;;;3.85;2.30;;;16.20;99.90;;;;;;5057727;28;20052;-72
2021/06/22 01:24:17;;;;;;;3.90;2.33;;;16.20;99.90;;;;;;5062009;28;20051;-72
2021/06/22 01:26:48;;;;;;;4.10;2.70;;;16.10;99.90;;;;;;5062553;28;20068;-72
2021/06/22 01:29:14;;;;;;;4.20;2.40;;;16.10;99.90;;;;;;5059703;28;20036;-72
2021/06/22 01:31:39;;;;;;;4.38;2.20;;;16.10;99.90;;;;;;5057229;28;20566;-72
2021/06/22 01:34:07;;;;;;;3.83;2.10;;;16.10;99.90;;;;;;5057945;28;20028;-73
2021/06/22 01:36:34;;;;;;;5.18;2.28;;;16.10;99.90;;;;;;5060715;28;20089;-72
2021/06/22 01:39:02;;;;;;;3.55;2.22;;;16.00;99.90;;;;;;5060060;28;20013;-72
2021/06/22 01:41:30;;;;;;;4.28;2.33;;;16.00;99.90;;;;;;5059981;28;20711;-72
2021/06/22 01:43:56;;;;;;;3.72;2.00;;;16.00;99.90;;;;;;5060313;28;20179;-72
2021/06/22 01:46:24;;;;;;;3.90;2.15;;;16.00;99.90;;;;;;5041569;28;20626;-72
2021/06/22 01:48:53;;;;;;;4.80;2.33;;;15.90;99.90;;;;;;5055071;28;20106;-73
2021/06/22 01:51:21;;;;;;;4.68;2.42;;;15.90;99.90;;;;;;5057918;28;20092;-72
2021/06/22 01:53:56;;;;;;;4.05;2.20;;;15.80;99.90;;;;;;5056757;28;20072;-72
2021/06/22 01:56:25;;;;;;;3.90;2.15;;;15.90;99.90;;;;;;5055813;28;20499;-72
2021/06/22 01:58:50;;;;;;;4.82;2.40;;;15.80;99.90;;;;;;5055344;28;20039;-72
2021/06/22 02:01:16;;;;;;;3.83;2.20;;;15.80;99.90;;;;;;5041957;28;20029;-72
2021/06/22 02:03:42;;;;;;;3.70;2.10;;;15.80;99.90;;;;;;5059143;28;20060;-72
2021/06/22 02:06:08;;;;;;;3.50;2.10;;;15.70;99.90;;;;;;5058771;28;20110;-71
2021/06/22 02:08:33;;;;;;;3.58;2.15;;;15.70;99.90;;;;;;5055175;28;20498;-71
2021/06/22 02:10:59;;;;;;;3.40;2.00;;;15.70;99.90;;;;;;5055695;28;20028;-72
2021/06/22 02:13:28;;;;;;;3.13;1.83;;;15.70;99.90;;;;;;5058565;28;20111;-72
2021/06/22 02:15:54;;;;;;;4.45;2.20;;;15.70;99.90;;;;;;5063125;28;20353;-72
2021/06/22 02:18:25;;;;;;;4.30;2.10;;;15.70;99.90;;;;;;5061503;28;20024;-72
2021/06/22 02:20:50;;;;;;;5.13;2.30;;;15.60;99.90;;;;;;5062747;28;20021;-72
2021/06/22 02:23:16;;;;;;;4.80;2.20;;;15.60;99.90;;;;;;5059512;28;20373;-72
2021/06/22 02:25:44;;;;;;;5.95;2.17;;;15.50;99.90;;;;;;5040441;28;20040;-72
2021/06/22 02:28:15;;;;;;;4.50;2.10;;;15.50;99.90;;;;;;5056669;28;20041;-72
2021/06/22 02:30:41;;;;;;;5.93;2.58;;;15.50;99.90;;;;;;5075062;28;20039;-72
2021/06/22 02:33:12;;;;;;;4.95;2.08;;;15.50;99.90;;;;;;5050649;28;20037;-72
2021/06/22 02:35:42;;;;;;;3.97;2.10;;;15.40;99.90;;;;;;5040569;28;20143;-72
2021/06/22 02:38:08;;;;;;;3.72;2.00;;;15.50;99.90;;;;;;5056852;28;20048;-72
2021/06/22 02:40:35;;;;;;;3.53;2.00;;;15.40;99.90;;;;;;5052892;28;20039;-73
2021/06/22 02:43:01;;;;;;;4.57;2.30;;;15.40;99.90;;;;;;5056912;28;20357;-72
2021/06/22 02:45:33;;;;;;;3.88;1.85;;;15.40;99.90;;;;;;5079772;28;20028;-72
2021/06/22 02:47:59;;;;;;;3.60;2.08;;;15.40;99.90;;;;;;5060366;28;20093;-72
2021/06/22 02:50:27;;;;;;;3.88;2.15;;;15.40;99.90;;;;;;5064362;28;20124;-72
2021/06/22 02:52:53;;;;;;;4.10;2.20;;;15.40;99.90;;;;;;5060309;28;20031;-72
2021/06/22 02:55:18;;;;;;;4.00;2.20;;;15.30;99.90;;;;;;5059640;28;20051;-72
2021/06/22 02:57:56;;;;;;;3.45;2.00;;;15.30;99.90;;;;;;5040601;28;20036;-72
2021/06/22 03:00:25;;;;;;;5.57;2.30;;;15.30;99.90;;;;;;5054142;28;20169;-72
2021/06/22 03:02:51;;;;;;;4.35;2.47;;;15.30;99.90;;;;;;5059312;28;20618;-72
2021/06/22 03:05:19;;;;;;;4.35;2.70;;;15.30;99.90;;;;;;5057913;28;20107;-72
2021/06/22 03:07:45;;;;;;;5.10;2.83;;;15.20;99.90;;;;;;5057791;28;20029;-72
2021/06/22 03:10:14;;;;;;;4.55;2.65;;;15.20;99.90;;;;;;5041393;28;20032;-72
2021/06/22 03:12:40;;;;;;;5.03;2.70;;;15.20;99.90;;;;;;5083923;28;20029;-72
2021/06/22 03:15:09;;;;;;;4.90;2.55;;;15.10;99.90;;;;;;5064682;28;20031;-72
2021/06/22 03:17:39;;;;;;;4.70;2.80;;;15.10;99.90;;;;;;5064445;28;20032;-72
2021/06/22 03:20:06;;;;;;;5.22;3.10;;;15.10;99.90;;;;;;5048369;28;20450;-72
2021/06/22 03:22:31;;;;;;;4.68;3.00;;;15.00;99.90;;;;;;5051831;28;20043;-72
2021/06/22 03:24:59;;;;;;;4.28;2.67;;;15.00;99.90;;;;;;5062829;28;20036;-74
2021/06/22 03:27:25;;;;;;;4.80;3.30;;;15.00;99.90;;;;;;5059897;28;20714;-72
2021/06/22 03:29:55;;;;;;;4.60;3.00;;;15.00;99.90;;;;;;5060565;28;20040;-72
2021/06/22 03:32:25;;;;;;;6.45;3.00;;;15.00;99.90;;;;;;5058529;28;20187;-73
2021/06/22 03:34:50;;;;;;;5.35;2.42;;;14.90;99.90;;;;;;5059040;28;20046;-72
2021/06/22 03:37:16;;;;;;;6.05;2.53;;;14.90;99.90;;;;;;5059479;28;21011;-73
2021/06/22 03:39:44;;;;;;;5.68;3.10;;;14.90;99.90;;;;;;5058913;28;20032;-74
2021/06/22 03:42:09;;;;;;;4.90;2.83;;;14.90;99.90;;;;;;5053257;28;20036;-73
2021/06/22 03:44:38;;;;;;;5.28;2.70;;;14.90;99.90;;;;;;5056056;28;20040;-73
2021/06/22 03:47:03;;;;;;;5.15;2.67;;;14.90;99.90;;;;;;5058974;28;20093;-72
2021/06/22 03:49:29;;;;;;;4.75;2.58;;;14.90;99.90;;;;;;5079219;28;20032;-72
2021/06/22 03:51:55;;;;;;;4.40;2.97;;;14.90;99.90;;;;;;5060695;28;20147;-73
2021/06/22 03:54:23;;;;;;;6.18;3.00;;;14.90;99.90;;;;;;5061165;28;20035;-72
2021/06/22 03:56:48;;;;;;;4.50;3.25;;;14.80;99.90;;;;;;5058520;28;20063;-73
2021/06/22 03:59:16;;;;;;;4.93;2.67;;;14.80;99.90;;;;;;5058260;28;20119;-73
2021/06/22 04:01:44;;;;;;;4.38;2.90;;;14.80;99.90;;;;;;5058092;28;20028;-72
2021/06/22 04:04:10;;;;;;;5.68;3.10;;;14.80;99.90;;;;;;5058993;28;20140;-73
2021/06/22 04:06:35;;;;;;;4.95;3.30;;;14.70;99.90;;;;;;5041539;28;20025;-74
2021/06/22 04:09:01;;;;;;;4.80;3.22;;;14.70;99.90;;;;;;5059566;28;20063;-73
2021/06/22 04:11:28;;;;;;;5.10;3.47;;;14.70;99.90;;;;;;5064949;28;20078;-73
2021/06/22 04:13:56;;;;;;;5.88;3.38;;;14.80;99.90;;;;;;5062807;28;20111;-72
2021/06/22 04:16:23;;;;;;;5.78;3.20;;;14.80;99.90;;;;;;5060943;28;20120;-73
2021/06/22 04:18:51;;;;;;;5.57;3.58;;;14.80;99.90;;;;;;5062820;28;20045;-73
2021/06/22 04:21:19;;;;;;;6.80;3.70;;;14.70;99.90;;;;;;5059071;28;20033;-73
2021/06/22 04:23:47;;;;;;;4.97;3.50;;;14.70;99.90;;;;;;5058377;28;20099;-73
2021/06/22 04:26:12;;;;;;;5.68;3.15;;;14.80;99.90;;;;;;5056116;28;20032;-73
2021/06/22 04:28:40;;;;;;;4.50;3.28;;;14.80;99.90;;;;;;5055927;28;20591;-73
2021/06/22 04:31:06;;;;;;;4.88;3.10;;;14.80;99.90;;;;;;5059029;28;20040;-74
2021/06/22 04:33:31;;;;;;;6.45;3.35;;;14.70;99.90;;;;;;5059175;28;20941;-73
2021/06/22 04:35:58;;;;;;;5.63;2.95;;;14.80;99.90;;;;;;5058114;28;20024;-73
2021/06/22 04:38:23;;;;;;;4.88;3.08;;;14.80;99.90;;;;;;5061710;28;20035;-73
2021/06/22 04:40:51;;;;;;;6.30;2.90;;;14.80;99.90;;;;;;5063083;28;20020;-73
2021/06/22 04:43:19;;;;;;;4.72;2.60;;;14.90;99.90;;;;;;5065637;28;20097;-73
2021/06/22 04:45:47;;;;;;;5.35;3.00;;;14.90;99.90;;;;;;5061704;28;20168;-73
2021/06/22 04:48:12;;;;;;;4.00;2.40;;;14.90;99.90;;;;;;5061565;28;20032;-75
2021/06/22 04:50:40;;;;;;;4.60;2.50;;;15.00;99.90;;;;;;5058164;28;20032;-73
2021/06/22 04:53:06;;;;;;;3.60;2.35;;;15.10;99.90;;;;;;5039807;28;20033;-73
2021/06/22 04:55:34;;;;;;;4.00;1.80;;;15.00;99.90;;;;;;5056678;28;20043;-73
2021/06/22 04:58:00;;;;;;;3.47;1.80;;;15.10;99.90;;;;;;5058542;28;20035;-73
2021/06/22 05:00:28;;;;;;;4.00;2.10;;;15.10;99.90;;;;;;5055747;28;20025;-73
2021/06/22 05:02:56;;;;;;;4.60;2.15;;;15.10;99.90;;;;;;5061237;28;20657;-73
2021/06/22 05:05:22;;;;;;;3.40;1.73;;;15.10;99.90;;;;;;5059740;28;20369;-75
2021/06/22 05:07:48;;;;;;;3.28;1.90;;;15.00;99.90;;;;;;5059860;28;20028;-73
2021/06/22 05:10:18;;;;;;;2.67;1.70;;;15.00;99.90;;;;;;5058892;28;20024;-73
2021/06/22 05:12:45;;;;;;;5.95;1.75;;;15.00;99.90;;;;;;5059667;28;20362;-73
2021/06/22 05:15:16;;;;;;;2.38;1.55;;;15.00;99.90;;;;;;5059085;28;20024;-73
2021/06/22 05:17:42;;;;;;;3.33;1.83;;;15.00;99.90;;;;;;5065785;28;20033;-74
2021/06/22 05:20:08;;;;;;;2.58;1.70;;;15.00;99.90;;;;;;5039971;28;20687;-73
2021/06/22 05:22:38;;;;;;;4.95;1.70;;;15.00;99.90;;;;;;5058837;28;20361;-74
2021/06/22 05:25:07;;;;;;;2.35;1.60;;;15.00;99.90;;;;;;5057283;28;20060;-72
2021/06/22 05:27:32;;;;;;;2.28;1.60;;;15.00;99.90;;;;;;5058199;28;20729;-74
2021/06/22 05:29:58;;;;;;;3.45;1.52;;;15.00;99.90;;;;;;5058366;28;20028;-73
2021/06/22 05:32:24;;;;;;;3.65;1.75;;;15.00;99.90;;;;;;5064852;28;20047;-74
2021/06/22 05:34:49;;;;;;;4.35;1.90;;;15.00;99.90;;;;;;5055849;28;20086;-74
2021/06/22 05:37:15;;;;;;;4.05;1.95;;;15.10;99.90;;;;;;5057133;28;20043;-73
2021/06/22 05:39:40;;;;;;;4.07;1.80;;;15.10;99.90;;;;;;5055840;28;20031;-74
2021/06/22 05:42:06;;;;;;;3.13;1.90;;;15.10;99.90;;;;;;5056236;28;20044;-75
2021/06/22 05:44:32;;;;;;;4.30;1.83;;;15.10;99.90;;;;;;5056746;28;20105;-73
2021/06/22 05:46:58;;;;;;;4.93;2.30;;;15.10;99.90;;;;;;5041319;28;20029;-74
2021/06/22 05:49:23;;;;;;;4.47;2.30;;;15.20;99.90;;;;;;5057537;28;20032;-74
2021/06/22 05:51:50;;;;;;;4.85;2.70;;;15.20;99.90;;;;;;5056255;28;20450;-74
2021/06/22 05:54:18;;;;;;;4.80;2.92;;;15.20;99.90;;;;;;5057303;28;20029;-74
2021/06/22 05:56:46;;;;;;;4.18;2.90;;;15.20;99.90;;;;;;5055252;28;20135;-74
2021/06/22 05:59:12;;;;;;;6.07;2.90;;;15.20;99.90;;;;;;5053962;28;20036;-74
2021/06/22 06:01:39;;;;;;;6.35;2.90;;;15.20;99.90;;;;;;5056646;28;20029;-75
2021/06/22 06:04:07;;;;;;;5.63;3.40;;;15.20;99.90;;;;;;5058472;28;20035;-72
2021/06/22 06:06:32;;;;;;;4.30;2.47;;;15.20;99.90;;;;;;5055638;28;20043;-72
2021/06/22 06:08:58;;;;;;;4.10;2.63;;;15.30;99.90;;;;;;5060608;28;20024;-72
2021/06/22 06:11:24;;;;;;;4.88;2.70;;;15.30;99.90;;;;;;5061409;28;20646;-74
2021/06/22 06:13:49;;;;;;;4.45;2.60;;;15.40;99.90;;;;;;5058829;28;20056;-74
2021/06/22 06:16:15;;;;;;;4.15;2.30;;;15.50;99.90;;;;;;5057560;28;20056;-74
2021/06/22 06:18:41;;;;;;;4.32;2.33;;;15.50;99.90;;;;;;5049164;28;20063;-73
2021/06/22 06:21:09;;;;;;;5.07;2.50;;;15.50;99.90;;;;;;5059902;28;20040;-72
2021/06/22 06:23:43;;;;;;;6.82;2.60;;;15.50;99.90;;;;;;5062455;28;20049;-74
2021/06/22 06:26:14;;;;;;;4.72;2.30;;;15.50;99.90;;;;;;5058539;28;20082;-75
2021/06/22 06:28:50;;;;;;;5.00;2.25;;;15.50;99.90;;;;;;5058154;28;20043;-75
2021/06/22 06:31:16;;;;;;;4.32;2.30;;;15.60;99.90;;;;;;5056650;28;20044;-77
2021/06/22 06:33:43;;;;;;;4.28;2.00;;;15.60;99.90;;;;;;5056725;28;20420;-75
2021/06/22 06:36:08;;;;;;;4.93;1.80;;;15.60;99.90;;;;;;5059742;28;20044;-74
2021/06/22 06:38:34;;;;;;;4.03;2.00;;;15.70;99.90;;;;;;5058025;28;20158;-72
2021/06/22 06:41:02;;;;;;;3.60;1.92;;;15.70;99.90;;;;;;5057330;28;20036;-76
2021/06/22 06:43:28;;;;;;;3.53;1.73;;;15.80;99.90;;;;;;5056407;28;20036;-77
2021/06/22 06:45:53;;;;;;;4.00;1.80;;;15.80;99.90;;;;;;5058555;28;20094;-76
2021/06/22 06:48:20;;;;;;;3.22;1.75;;;15.90;99.90;;;;;;5056781;28;20056;-76
2021/06/22 06:50:48;;;;;;;3.05;1.77;;;15.90;99.90;;;;;;5060182;28;20031;-76
2021/06/22 06:53:18;;;;;;;5.50;1.95;;;16.00;99.90;;;;;;5058388;28;20029;-77
2021/06/22 06:55:46;;;;;;;3.45;2.00;;;15.90;99.90;;;;;;5065367;28;20033;-76
2021/06/22 06:58:12;;;;;;;3.45;2.00;;;15.90;99.90;;;;;;5056137;28;20039;-77
2021/06/22 07:00:40;;;;;;;3.20;1.90;;;15.90;99.90;;;;;;5058019;28;20029;-77
2021/06/22 07:03:06;;;;;;;3.15;1.90;;;15.90;99.90;;;;;;5058759;28;20036;-76
2021/06/22 07:05:35;;;;;;;3.67;2.00;;;15.90;99.90;;;;;;5057098;28;20043;-78
2021/06/22 07:08:03;;;;;;;4.63;2.15;;;15.90;99.90;;;;;;5054934;28;20032;-76
2021/06/22 07:10:29;;;;;;;4.70;2.40;;;15.90;99.90;;;;;;5059554;28;20043;-76
2021/06/22 07:12:57;;;;;;;4.88;2.30;;;15.90;99.90;;;;;;5058895;28;20036;-77
2021/06/22 07:15:27;;;;;;;3.83;2.17;;;15.80;99.90;;;;;;5055343;28;20029;-75
2021/06/22 07:17:53;;;;;;;4.80;2.42;;;15.80;99.90;;;;;;5055617;28;20078;-76
2021/06/22 07:20:18;;;;;;;3.92;2.10;;;15.90;99.90;;;;;;5072564;28;20067;-78
2021/06/22 07:22:46;;;;;;;4.85;2.17;;;15.90;99.90;;;;;;5059215;28;20020;-77
2021/06/22 07:25:13;;;;;;;4.72;2.50;;;15.90;99.90;;;;;;5057625;28;20040;-74
2021/06/22 07:27:38;;;;;;;3.72;2.20;;;15.90;99.90;;;;;;5054519;28;20048;-74
2021/06/22 07:30:05;;;;;;;5.22;2.20;;;15.90;99.90;;;;;;5054840;28;20033;-74
2021/06/22 07:32:30;;;;;;;4.93;2.20;;;16.00;99.90;;;;;;5057667;28;20041;-74
2021/06/22 07:34:56;;;;;;;4.65;2.20;;;16.10;99.90;;;;;;5057469;28;20135;-74
2021/06/22 07:37:21;;;;;;;3.95;2.30;;;16.20;99.90;;;;;;5058074;28;20025;-73
2021/06/22 07:39:47;;;;;;;4.63;2.28;;;16.30;99.90;;;;;;5043758;28;20103;-73
2021/06/22 07:42:15;;;;;;;3.65;2.15;;;16.40;99.90;;;;;;5073302;28;20123;-73
2021/06/22 07:44:41;;;;;;;5.28;2.60;;;16.30;99.90;;;;;;5057483;28;20068;-74
2021/06/22 07:47:06;;;;;;;4.90;2.20;;;16.40;99.90;;;;;;5057230;28;20036;-75
2021/06/22 07:49:32;;;;;;;5.13;2.30;;;16.50;99.90;;;;;;5057651;28;20029;-75
2021/06/22 07:51:58;;;;;;;5.30;2.30;;;16.50;99.90;;;;;;5056807;28;20028;-75
2021/06/22 07:54:25;;;;;;;4.70;2.20;;;16.60;99.90;;;;;;5058724;28;20047;-77
2021/06/22 07:56:51;;;;;;;4.32;2.20;;;16.60;99.90;;;;;;5059960;28;20043;-75
2021/06/22 07:59:19;;;;;;;3.75;2.05;;;16.60;99.90;;;;;;5063350;28;20209;-76
2021/06/22 08:01:46;;;;;;;3.50;2.20;;;16.70;99.90;;;;;;5060965;28;20033;-75
2021/06/22 08:04:14;;;;;;;4.78;2.13;;;16.80;99.90;;;;;;5059474;28;20608;-75
2021/06/22 08:06:45;;;;;;;5.35;2.20;;;16.80;99.90;;;;;;5061983;28;20025;-75
2021/06/22 08:09:10;;;;;;;4.47;2.20;;;16.90;99.90;;;;;;5062035;28;20107;-73
2021/06/22 08:11:36;;;;;;;4.20;2.00;;;17.00;99.90;;;;;;5063712;28;20123;-73
2021/06/22 08:14:02;;;;;;;5.38;2.55;;;17.10;99.90;;;;;;5060674;28;20039;-77
2021/06/22 08:16:28;;;;;;;3.25;1.70;;;17.10;99.90;;;;;;5060549;28;20093;-76
2021/06/22 08:18:53;;;;;;;4.32;2.10;;;17.10;99.90;;;;;;5080478;28;20028;-74
2021/06/22 08:21:19;;;;;;;3.33;2.15;;;17.10;99.90;;;;;;5062607;28;20591;-75
2021/06/22 08:23:45;;;;;;;3.00;1.92;;;17.10;99.90;;;;;;5061858;28;20052;-75
2021/06/22 08:26:10;;;;;;;3.58;2.03;;;17.10;99.90;;;;;;5057427;28;20613;-74
2021/06/22 08:28:38;;;;;;;4.68;2.40;;;17.10;99.90;;;;;;5057161;28;20099;-76
2021/06/22 08:31:04;;;;;;;4.53;2.30;;;17.10;99.90;;;;;;5060533;28;20121;-76
2021/06/22 08:33:30;;;;;;;4.35;2.30;;;17.00;99.90;;;;;;5028164;28;20037;-75
2021/06/22 08:35:55;;;;;;;4.50;2.10;;;17.10;99.90;;;;;;5061965;28;20507;-74
2021/06/22 08:38:22;;;;;;;3.72;2.28;;;17.10;99.90;;;;;;5059419;28;20025;-74
2021/06/22 08:40:50;;;;;;;4.43;2.33;;;17.10;99.90;;;;;;5060873;28;20066;-75
2021/06/22 08:43:16;;;;;;;3.42;2.15;;;17.20;99.90;;;;;;5060201;28;20037;-74
2021/06/22 08:45:44;;;;;;;4.82;2.38;;;17.20;99.90;;;;;;5058482;28;20037;-74
2021/06/22 08:48:10;;;;;;;3.92;2.13;;;17.30;99.90;;;;;;5061039;28;20071;-75
2021/06/22 08:50:43;;;;;;;3.33;2.10;;;17.30;99.90;;;;;;5062171;28;20037;-75
2021/06/22 08:53:15;;;;;;;5.57;2.20;;;17.40;99.90;;;;;;5048996;28;20034;-74
2021/06/22 08:55:43;;;;;;;5.15;2.10;;;17.40;99.90;;;;;;5063500;28;20033;-74
2021/06/22 08:58:14;;;;;;;3.28;2.03;;;17.40;99.90;;;;;;5059105;28;20094;-74
2021/06/22 09:00:41;;;;;;;3.67;2.20;;;17.40;99.90;;;;;;5062600;28;20028;-75
2021/06/22 09:03:14;;;;;;;3.72;2.10;;;17.30;99.90;;;;;;5061363;28;20123;-74
2021/06/22 09:05:46;;;;;;;5.35;2.10;;;17.30;99.90;;;;;;5060939;28;20048;-74
2021/06/22 09:08:23;;;;;;;5.30;2.35;;;17.30;99.90;;;;;;5058719;28;20589;-74
2021/06/22 09:10:50;;;;;;;5.05;2.30;;;17.40;99.90;;;;;;5061738;28;20025;-74
2021/06/22 09:13:18;;;;;;;5.38;2.58;;;17.30;99.90;;;;;;5056943;28;20028;-74
2021/06/22 09:15:49;;;;;;;4.75;2.20;;;17.30;99.90;;;;;;5079063;28;20546;-74
2021/06/22 09:18:31;;;;;;;3.35;2.22;;;17.30;99.90;;;;;;5056699;28;20029;-74
2021/06/22 09:21:22;;;;;;;;;;;17.30;99.90;;;;;;5061844;28;20031;-73
2021/06/22 09:23:51;;;;;;;3.53;2.00;;;17.40;99.90;;;;;;5059987;28;20011;-74
2021/06/22 09:26:18;;;;;;;3.00;2.00;;;17.40;99.90;;;;;;5061443;28;20032;-74
2021/06/22 09:28:49;;;;;;;3.30;1.95;;;17.50;99.90;;;;;;5059037;28;20037;-74
2021/06/22 09:31:21;;;;;;;3.47;2.10;;;17.50;99.90;;;;;;5060866;28;20040;-73
2021/06/22 09:33:49;;;;;;;4.15;2.00;;;17.60;99.90;;;;;;5061637;28;20109;-73
2021/06/22 09:36:25;;;;;;;3.13;2.00;;;17.70;99.90;;;;;;5059597;28;20039;-73
2021/06/22 09:38:59;;;;;;;3.38;1.80;;;17.80;99.90;;;;;;5058165;28;20036;-74
2021/06/22 09:41:40;;;;;;;3.40;1.90;;;17.90;99.90;;;;;;5045173;28;20107;-74
2021/06/22 09:44:13;;;;;;;3.53;1.83;;;17.90;99.90;;;;;;5060122;28;20051;-73
2021/06/22 09:46:53;;;;;;;3.25;1.90;;;18.00;99.90;;;;;;5043047;28;20086;-75
2021/06/22 09:49:27;;;;;;;3.97;2.05;;;18.10;99.90;;;;;;5058509;28;20139;-73
2021/06/22 09:54:33;;;;;;;3.75;2.00;;;18.10;99.90;;;;;;5058465;28;20021;-74
2021/06/22 09:57:17;;;;;;;3.05;1.83;;;18.10;99.90;;;;;;5064131;28;20024;-73
2021/06/22 10:00:08;;;;;;;3.55;2.00;;;18.20;99.90;;;;;;5058240;28;20031;-75
2021/06/22 10:02:50;;;;;;;5.23;2.20;;;18.20;99.90;;;;;;5059248;28;20469;-74
2021/06/22 10:05:16;;;;;;;4.47;2.00;;;18.20;99.90;;;;;;5063417;28;20777;-74
2021/06/22 10:07:42;;;;;;;3.75;1.80;;;18.20;99.90;;;;;;5058174;28;20043;-74
2021/06/22 10:10:08;;;;;;;5.40;2.22;;;18.20;99.90;;;;;;5057805;28;20025;-74
2021/06/22 10:12:35;;;;;;;3.75;2.10;;;18.20;99.90;;;;;;5058592;28;20043;-71
2021/06/22 10:15:02;;;;;;;4.63;2.10;;;18.10;99.90;;;;;;5056402;28;20032;-72
2021/06/22 10:17:29;;;;;;;4.30;2.13;;;18.10;99.90;;;;;;5059969;28;20028;-74
2021/06/22 10:19:56;;;;;;;3.65;1.98;;;18.00;99.90;;;;;;5057204;28;20025;-73
2021/06/22 10:22:27;;;;;;;8.32;2.63;;;18.00;99.90;;;;;;5056851;28;20100;-74
2021/06/22 10:24:57;;;;;;;4.85;2.00;;;17.90;99.90;;;;;;5058245;28;20294;-74
2021/06/22 10:27:28;;;;;;;4.55;2.13;;;17.90;99.90;;;;;;5060254;28;20040;-74
2021/06/22 10:29:55;;;;;;;4.03;2.30;;;17.80;99.90;;;;;;5060819;28;20043;-73
2021/06/22 10:32:23;;;;;;;3.60;2.17;;;17.80;99.90;;;;;;5043076;28;20166;-74
2021/06/22 10:34:56;;;;;;;3.70;2.17;;;17.70;99.90;;;;;;5076186;28;20020;-75
2021/06/22 10:37:37;;;;;;;3.53;1.92;;;17.70;99.90;;;;;;5061893;28;20052;-74
2021/06/22 10:40:25;;;;;;;3.25;2.03;;;17.70;99.90;;;;;;5045262;28;20034;-74
2021/06/22 10:42:52;;;;;;;3.97;2.20;;;17.60;99.90;;;;;;5059145;28;20024;-74
2021/06/22 10:45:20;;;;;;;4.22;2.33;;;17.50;99.90;;;;;;5061430;28;20499;-74
2021/06/22 10:47:46;;;;;;;4.75;2.25;;;17.50;99.90;;;;;;5060677;28;20040;-73
2021/06/22 10:50:24;;;;;;;3.90;2.33;;;17.50;99.90;;;;;;5057475;28;20151;-73
2021/06/22 10:53:11;;;;;;;4.32;2.53;;;17.40;99.90;;;;;;5073520;28;20525;-73
2021/06/22 10:55:41;;;;;;;4.43;2.22;;;17.40;99.90;;;;;;5058739;28;20138;-75
2021/06/22 10:58:07;;;;;;;4.07;2.30;;;17.40;99.90;;;;;;5078218;28;20025;-73
2021/06/22 11:00:51;;;;;;;4.55;2.40;;;17.40;99.90;;;;;;5078798;28;20036;-73
2021/06/22 11:03:23;;;;;;;4.35;2.28;;;17.40;99.90;;;;;;5059460;28;20380;-73
2021/06/22 11:06:08;;;;;;;4.65;2.20;;;17.50;99.90;;;;;;5059526;28;20036;-73
2021/06/22 11:08:38;;;;;;;4.32;2.20;;;17.60;99.90;;;;;;5060490;28;20052;-73
2021/06/22 11:11:06;;;;;;;5.18;2.50;;;17.60;99.90;;;;;;5054898;28;20055;-74
2021/06/22 11:13:45;;;;;;;4.05;2.28;;;17.70;99.90;;;;;;5059674;28;20327;-74
2021/06/22 11:16:13;;;;;;;3.80;2.30;;;17.70;99.90;;;;;;5057463;28;20033;-73
2021/06/22 11:19:00;;;;;;;5.38;2.55;;;17.70;99.90;;;;;;5057247;28;20037;-73
2021/06/22 11:21:34;;;;;;;4.20;2.40;;;17.80;99.90;;;;;;5057932;28;20099;-74
2021/06/22 11:24:12;;;;;;;4.63;2.40;;;17.70;99.90;;;;;;5059149;28;20088;-73
2021/06/22 11:26:41;;;;;;;4.13;2.53;;;17.80;99.90;;;;;;5055124;28;20044;-71
2021/06/22 11:29:08;;;;;;;5.32;2.55;;;17.80;99.90;;;;;;5059151;28;20032;-73
2021/06/22 11:31:43;;;;;;;3.92;2.40;;;17.80;99.90;;;;;;5060506;28;20037;-73
2021/06/22 11:34:19;;;;;;;3.90;2.63;;;17.90;99.90;;;;;;5064616;28;20028;-73
2021/06/22 11:36:57;;;;;;;4.45;2.58;;;18.00;99.90;;;;;;5062310;28;20029;-73
2021/06/22 11:39:26;;;;;;;3.92;2.42;;;18.00;99.90;;;;;;5062794;28;20028;-74
2021/06/22 11:42:07;;;;;;;3.85;2.63;;;18.00;99.90;;;;;;5064556;28;20114;-74
2021/06/22 11:44:34;;;;;;;;;;;18.00;99.90;;;;;;4711275;28;10000699;-74
2021/06/22 11:47:00;;;;;;;5.45;2.58;;;18.10;99.90;;;;;;5061566;28;19977;-74
2021/06/22 11:49:43;;;;;;;5.85;2.60;;;18.10;99.90;;;;;;5057567;28;20067;-85
2021/06/22 11:52:12;;;;;;;4.88;2.70;;;18.20;99.90;;;;;;5077157;28;20025;-74
2021/06/22 11:54:48;;;;;;;4.60;2.75;;;18.30;99.90;;;;;;5057490;28;20478;-74
2021/06/22 11:57:21;;;;;;;4.03;2.58;;;18.30;99.90;;;;;;5061678;28;20028;-72
2021/06/22 11:59:47;;;;;;;5.38;2.60;;;18.30;99.90;;;;;;5057996;28;20965;-74
2021/06/22 12:02:14;;;;;;;4.13;2.47;;;18.40;99.90;;;;;;5055620;28;20099;-74
2021/06/22 12:04:41;;;;;;;5.50;2.50;;;18.40;99.90;;;;;;5064400;28;20369;-74
2021/06/22 12:07:07;;;;;;;4.47;2.50;;;18.30;99.90;;;;;;5058787;28;20024;-74
2021/06/22 12:09:38;;;;;;;3.83;2.40;;;18.30;99.90;;;;;;5057794;28;20024;-74
2021/06/22 12:12:09;;;;;;;4.22;2.53;;;18.30;99.90;;;;;;5078098;28;20089;-75
2021/06/22 12:14:35;;;;;;;4.97;3.15;;;18.30;99.90;;;;;;5061316;28;20031;-74
2021/06/22 12:17:15;;;;;;;5.50;2.80;;;18.30;99.90;;;;;;5058978;28;20362;-75
2021/06/22 12:19:44;;;;;;;5.38;2.45;;;18.30;99.90;;;;;;5060259;28;20028;-72
2021/06/22 12:22:11;;;;;;;3.83;2.33;;;18.20;99.90;;;;;;4711940;28;10000266;-72
2021/06/22 12:24:40;;;;;;;4.15;2.80;;;18.20;99.90;;;;;;5056994;28;20046;-74
2021/06/22 12:27:06;;;;;;;4.47;2.60;;;18.20;99.90;;;;;;5057427;28;20028;-75
2021/06/22 12:29:34;;;;;;;4.00;2.58;;;18.10;99.90;;;;;;5061006;28;20035;-75
2021/06/22 12:32:04;;;;;;;5.57;2.72;;;18.10;99.90;;;;;;5042156;28;20132;-75
2021/06/22 12:34:36;;;;;;;4.30;2.80;;;18.10;99.90;;;;;;5057350;28;20331;-75
2021/06/22 12:37:07;;;;;;;4.82;2.60;;;18.10;99.90;;;;;;5059148;28;20029;-74
2021/06/22 12:39:39;;;;;;;4.72;2.63;;;18.00;99.90;;;;;;5057215;28;20033;-75
2021/06/22 12:42:09;;;;;;;3.92;2.58;;;18.00;99.90;;;;;;5059184;28;20093;-75
2021/06/22 12:44:37;;;;;;;4.47;2.60;;;18.00;99.90;;;;;;5045876;28;20036;-75
2021/06/22 12:47:06;;;;;;;5.47;2.78;;;18.00;99.90;;;;;;5058825;28;20036;-74
2021/06/22 12:49:35;;;;;;;4.78;2.70;;;17.90;99.90;;;;;;5060228;28;20098;-74
2021/06/22 12:52:03;;;;;;;5.68;3.25;;;17.90;99.90;;;;;;5045558;28;20046;-74
2021/06/22 12:54:29;;;;;;;5.43;3.00;;;17.90;99.90;;;;;;5061349;28;20032;-74
2021/06/22 12:56:56;;;;;;;4.97;3.10;;;17.90;99.90;;;;;;5058029;28;20025;-74